sensor_id;sensor_type;location;lat;lon;timestamp;P1;durP1;ratioP1;P2;durP2;ratioP2
14516;SDS011;7344;50.864;4.362;2022-09-25T00:00:24;5.97;;;3.00;;
14516;SDS011;7344;50.864;4.362;2022-09-25T00:02:50;15.07;;;3.07;;
14516;SDS011;7344;50.864;4.362;2022-09-25T00:05:15;14.80;;;3.97;;
14516;SDS011;7344;50.864;4.362;2022-09-25T00:07:41;8.00;;;3.13;;
14516;SDS011;7344;50.864;4.362;2022-09-25T00:10:06;8.17;;;3.27;;
14516;SDS011;7344;50.864;4.362;2022-09-25T00:12:32;5.60;;;3.33;;
14516;SDS011;7344;50.864;4.362;2022-09-25T00:15:00;6.53;;;2.90;;
14516;SDS011;7344;50.864;4.362;2022-09-25T00:17:26;7.03;;;3.27;;
14516;SDS011;7344;50.864;4.362;2022-09-25T00:19:51;14.43;;;3.40;;
14516;SDS011;7344;50.864;4.362;2022-09-25T00:22:17;6.97;;;3.40;;
14516;SDS011;7344;50.864;4.362;2022-09-25T00:24:45;6.27;;;3.33;;
14516;SDS011;7344;50.864;4.362;2022-09-25T00:27:11;7.47;;;2.90;;
14516;SDS011;7344;50.864;4.362;2022-09-25T00:29:38;8.00;;;3.47;;
14516;SDS011;7344;50.864;4.362;2022-09-25T00:32:05;8.37;;;3.00;;
14516;SDS011;7344;50.864;4.362;2022-09-25T00:34:32;5.63;;;3.00;;
14516;SDS011;7344;50.864;4.362;2022-09-25T00:36:58;7.50;;;2.70;;
14516;SDS011;7344;50.864;4.362;2022-09-25T00:39:24;11.30;;;3.27;;
14516;SDS011;7344;50.864;4.362;2022-09-25T00:41:50;9.43;;;3.37;;
14516;SDS011;7344;50.864;4.362;2022-09-25T00:47:17;8.83;;;3.00;;
14516;SDS011;7344;50.864;4.362;2022-09-25T00:49:47;7.87;;;2.70;;
14516;SDS011;7344;50.864;4.362;2022-09-25T00:52:13;8.17;;;3.03;;
14516;SDS011;7344;50.864;4.362;2022-09-25T00:54:50;7.93;;;3.17;;
14516;SDS011;7344;50.864;4.362;2022-09-25T00:57:20;6.47;;;3.20;;
14516;SDS011;7344;50.864;4.362;2022-09-25T00:59:51;6.07;;;2.60;;
14516;SDS011;7344;50.864;4.362;2022-09-25T01:02:25;7.73;;;2.40;;
14516;SDS011;7344;50.864;4.362;2022-09-25T01:04:54;5.83;;;2.47;;
14516;SDS011;7344;50.864;4.362;2022-09-25T01:07:22;5.30;;;2.63;;
14516;SDS011;7344;50.864;4.362;2022-09-25T01:09:48;9.23;;;2.60;;
14516;SDS011;7344;50.864;4.362;2022-09-25T01:12:14;8.03;;;2.60;;
14516;SDS011;7344;50.864;4.362;2022-09-25T01:14:40;8.33;;;2.50;;
14516;SDS011;7344;50.864;4.362;2022-09-25T01:29:03;8.57;;;2.27;;
14516;SDS011;7344;50.864;4.362;2022-09-25T01:34:22;4.87;;;2.27;;
14516;SDS011;7344;50.864;4.362;2022-09-25T01:36:57;10.30;;;2.77;;
14516;SDS011;7344;50.864;4.362;2022-09-25T01:39:52;6.10;;;2.63;;
14516;SDS011;7344;50.864;4.362;2022-09-25T01:42:25;9.37;;;2.60;;
14516;SDS011;7344;50.864;4.362;2022-09-25T01:44:56;7.20;;;2.40;;
14516;SDS011;7344;50.864;4.362;2022-09-25T01:47:27;9.13;;;2.50;;
14516;SDS011;7344;50.864;4.362;2022-09-25T01:49:57;7.50;;;2.60;;
14516;SDS011;7344;50.864;4.362;2022-09-25T01:52:27;8.17;;;2.50;;
14516;SDS011;7344;50.864;4.362;2022-09-25T01:55:07;9.77;;;3.30;;
14516;SDS011;7344;50.864;4.362;2022-09-25T01:57:41;9.77;;;2.97;;
14516;SDS011;7344;50.864;4.362;2022-09-25T02:00:13;7.27;;;2.40;;
14516;SDS011;7344;50.864;4.362;2022-09-25T02:02:56;10.63;;;2.47;;
14516;SDS011;7344;50.864;4.362;2022-09-25T02:05:29;10.93;;;2.77;;
14516;SDS011;7344;50.864;4.362;2022-09-25T02:08:11;8.43;;;2.63;;
14516;SDS011;7344;50.864;4.362;2022-09-25T02:10:59;12.87;;;3.07;;
14516;SDS011;7344;50.864;4.362;2022-09-25T02:13:31;7.20;;;2.57;;
14516;SDS011;7344;50.864;4.362;2022-09-25T02:16:15;7.17;;;2.43;;
14516;SDS011;7344;50.864;4.362;2022-09-25T02:18:47;8.47;;;2.73;;
14516;SDS011;7344;50.864;4.362;2022-09-25T02:21:43;6.10;;;2.97;;
14516;SDS011;7344;50.864;4.362;2022-09-25T02:27:03;6.13;;;2.67;;
14516;SDS011;7344;50.864;4.362;2022-09-25T02:29:29;7.37;;;2.77;;
14516;SDS011;7344;50.864;4.362;2022-09-25T02:32:01;8.47;;;2.83;;
14516;SDS011;7344;50.864;4.362;2022-09-25T02:34:36;10.10;;;2.70;;
14516;SDS011;7344;50.864;4.362;2022-09-25T02:37:02;9.40;;;3.27;;
14516;SDS011;7344;50.864;4.362;2022-09-25T02:39:34;9.80;;;3.37;;
14516;SDS011;7344;50.864;4.362;2022-09-25T02:50:53;8.77;;;3.40;;
14516;SDS011;7344;50.864;4.362;2022-09-25T02:53:42;10.20;;;2.87;;
14516;SDS011;7344;50.864;4.362;2022-09-25T02:56:30;7.60;;;3.27;;
14516;SDS011;7344;50.864;4.362;2022-09-25T02:59:22;7.30;;;3.13;;
14516;SDS011;7344;50.864;4.362;2022-09-25T03:01:52;15.27;;;3.43;;
14516;SDS011;7344;50.864;4.362;2022-09-25T03:04:19;10.23;;;3.20;;
14516;SDS011;7344;50.864;4.362;2022-09-25T03:06:47;9.17;;;3.13;;
14516;SDS011;7344;50.864;4.362;2022-09-25T03:09:14;9.03;;;3.23;;
14516;SDS011;7344;50.864;4.362;2022-09-25T03:11:42;8.43;;;3.33;;
14516;SDS011;7344;50.864;4.362;2022-09-25T03:14:08;11.37;;;3.13;;
14516;SDS011;7344;50.864;4.362;2022-09-25T03:16:41;8.00;;;3.07;;
14516;SDS011;7344;50.864;4.362;2022-09-25T03:19:16;12.87;;;3.60;;
14516;SDS011;7344;50.864;4.362;2022-09-25T03:21:45;9.97;;;3.23;;
14516;SDS011;7344;50.864;4.362;2022-09-25T03:24:12;11.57;;;3.53;;
14516;SDS011;7344;50.864;4.362;2022-09-25T03:26:38;8.53;;;3.50;;
14516;SDS011;7344;50.864;4.362;2022-09-25T03:29:05;6.90;;;3.73;;
14516;SDS011;7344;50.864;4.362;2022-09-25T03:31:30;9.67;;;3.47;;
14516;SDS011;7344;50.864;4.362;2022-09-25T03:33:56;7.33;;;3.40;;
14516;SDS011;7344;50.864;4.362;2022-09-25T03:36:23;9.57;;;3.90;;
14516;SDS011;7344;50.864;4.362;2022-09-25T03:38:54;9.87;;;3.80;;
14516;SDS011;7344;50.864;4.362;2022-09-25T03:41:23;8.53;;;3.53;;
14516;SDS011;7344;50.864;4.362;2022-09-25T03:43:50;11.40;;;3.70;;
14516;SDS011;7344;50.864;4.362;2022-09-25T03:46:17;6.67;;;3.50;;
14516;SDS011;7344;50.864;4.362;2022-09-25T03:48:45;10.03;;;4.10;;
14516;SDS011;7344;50.864;4.362;2022-09-25T03:51:11;9.53;;;3.50;;
14516;SDS011;7344;50.864;4.362;2022-09-25T03:53:37;9.43;;;3.80;;
14516;SDS011;7344;50.864;4.362;2022-09-25T03:56:14;9.27;;;3.63;;
14516;SDS011;7344;50.864;4.362;2022-09-25T03:58:42;13.13;;;3.93;;
14516;SDS011;7344;50.864;4.362;2022-09-25T04:01:08;9.67;;;3.90;;
14516;SDS011;7344;50.864;4.362;2022-09-25T04:03:35;5.30;;;3.60;;
14516;SDS011;7344;50.864;4.362;2022-09-25T04:06:01;9.23;;;4.00;;
14516;SDS011;7344;50.864;4.362;2022-09-25T04:08:31;9.00;;;3.80;;
14516;SDS011;7344;50.864;4.362;2022-09-25T04:10:59;12.33;;;4.20;;
14516;SDS011;7344;50.864;4.362;2022-09-25T04:13:26;8.67;;;3.83;;
14516;SDS011;7344;50.864;4.362;2022-09-25T04:15:54;11.97;;;4.00;;
14516;SDS011;7344;50.864;4.362;2022-09-25T04:18:20;10.57;;;4.30;;
14516;SDS011;7344;50.864;4.362;2022-09-25T04:20:46;10.03;;;4.57;;
14516;SDS011;7344;50.864;4.362;2022-09-25T04:23:12;11.20;;;4.20;;
14516;SDS011;7344;50.864;4.362;2022-09-25T04:25:37;10.33;;;4.63;;
14516;SDS011;7344;50.864;4.362;2022-09-25T04:28:03;15.37;;;4.93;;
14516;SDS011;7344;50.864;4.362;2022-09-25T04:30:29;14.43;;;4.33;;
14516;SDS011;7344;50.864;4.362;2022-09-25T04:32:55;8.93;;;4.60;;
14516;SDS011;7344;50.864;4.362;2022-09-25T04:35:39;12.17;;;4.30;;
14516;SDS011;7344;50.864;4.362;2022-09-25T04:38:06;13.90;;;4.60;;
14516;SDS011;7344;50.864;4.362;2022-09-25T04:40:32;14.23;;;4.77;;
14516;SDS011;7344;50.864;4.362;2022-09-25T04:42:59;12.23;;;4.60;;
14516;SDS011;7344;50.864;4.362;2022-09-25T04:45:26;12.97;;;4.60;;
14516;SDS011;7344;50.864;4.362;2022-09-25T04:47:53;8.97;;;5.13;;
14516;SDS011;7344;50.864;4.362;2022-09-25T04:50:19;14.53;;;5.10;;
14516;SDS011;7344;50.864;4.362;2022-09-25T04:52:45;10.10;;;5.30;;
14516;SDS011;7344;50.864;4.362;2022-09-25T04:55:11;13.50;;;4.87;;
14516;SDS011;7344;50.864;4.362;2022-09-25T04:57:37;12.30;;;5.33;;
14516;SDS011;7344;50.864;4.362;2022-09-25T05:00:03;12.87;;;5.30;;
14516;SDS011;7344;50.864;4.362;2022-09-25T05:02:30;19.83;;;5.47;;
14516;SDS011;7344;50.864;4.362;2022-09-25T05:04:55;13.77;;;5.13;;
14516;SDS011;7344;50.864;4.362;2022-09-25T05:07:21;13.97;;;5.57;;
14516;SDS011;7344;50.864;4.362;2022-09-25T05:09:46;15.27;;;5.87;;
14516;SDS011;7344;50.864;4.362;2022-09-25T05:12:12;13.17;;;6.10;;
14516;SDS011;7344;50.864;4.362;2022-09-25T05:14:38;12.57;;;6.00;;
14516;SDS011;7344;50.864;4.362;2022-09-25T05:17:06;12.50;;;6.67;;
14516;SDS011;7344;50.864;4.362;2022-09-25T05:19:32;11.47;;;6.90;;
14516;SDS011;7344;50.864;4.362;2022-09-25T05:21:59;18.50;;;6.33;;
14516;SDS011;7344;50.864;4.362;2022-09-25T05:24:25;13.10;;;6.97;;
14516;SDS011;7344;50.864;4.362;2022-09-25T05:26:51;14.87;;;7.23;;
14516;SDS011;7344;50.864;4.362;2022-09-25T05:29:16;25.10;;;7.23;;
14516;SDS011;7344;50.864;4.362;2022-09-25T05:31:42;15.47;;;7.07;;
14516;SDS011;7344;50.864;4.362;2022-09-25T05:34:11;12.77;;;7.77;;
14516;SDS011;7344;50.864;4.362;2022-09-25T05:36:37;20.90;;;7.47;;
14516;SDS011;7344;50.864;4.362;2022-09-25T05:39:03;15.10;;;7.20;;
14516;SDS011;7344;50.864;4.362;2022-09-25T05:41:28;15.20;;;7.70;;
14516;SDS011;7344;50.864;4.362;2022-09-25T05:43:55;12.33;;;7.37;;
14516;SDS011;7344;50.864;4.362;2022-09-25T05:46:22;18.53;;;7.20;;
14516;SDS011;7344;50.864;4.362;2022-09-25T05:48:47;16.13;;;7.40;;
14516;SDS011;7344;50.864;4.362;2022-09-25T05:51:13;14.27;;;7.33;;
14516;SDS011;7344;50.864;4.362;2022-09-25T05:53:39;16.93;;;7.47;;
14516;SDS011;7344;50.864;4.362;2022-09-25T05:56:05;10.60;;;7.40;;
14516;SDS011;7344;50.864;4.362;2022-09-25T05:58:32;14.33;;;7.33;;
14516;SDS011;7344;50.864;4.362;2022-09-25T06:00:59;14.80;;;7.23;;
14516;SDS011;7344;50.864;4.362;2022-09-25T06:03:27;18.33;;;7.40;;
14516;SDS011;7344;50.864;4.362;2022-09-25T06:05:54;12.63;;;8.00;;
14516;SDS011;7344;50.864;4.362;2022-09-25T06:08:24;20.97;;;8.40;;
14516;SDS011;7344;50.864;4.362;2022-09-25T06:10:51;14.50;;;7.60;;
14516;SDS011;7344;50.864;4.362;2022-09-25T06:13:18;15.77;;;8.20;;
14516;SDS011;7344;50.864;4.362;2022-09-25T06:15:44;14.83;;;8.20;;
14516;SDS011;7344;50.864;4.362;2022-09-25T06:18:10;15.73;;;7.77;;
14516;SDS011;7344;50.864;4.362;2022-09-25T06:20:36;21.77;;;8.27;;
14516;SDS011;7344;50.864;4.362;2022-09-25T06:23:01;14.23;;;8.20;;
14516;SDS011;7344;50.864;4.362;2022-09-25T06:25:28;14.17;;;7.70;;
14516;SDS011;7344;50.864;4.362;2022-09-25T06:27:57;14.57;;;7.27;;
14516;SDS011;7344;50.864;4.362;2022-09-25T06:30:24;12.20;;;7.07;;
14516;SDS011;7344;50.864;4.362;2022-09-25T06:32:58;11.33;;;7.30;;
14516;SDS011;7344;50.864;4.362;2022-09-25T06:35:24;12.50;;;7.27;;
14516;SDS011;7344;50.864;4.362;2022-09-25T06:37:51;9.80;;;6.50;;
14516;SDS011;7344;50.864;4.362;2022-09-25T06:40:20;9.53;;;5.70;;
14516;SDS011;7344;50.864;4.362;2022-09-25T06:42:45;8.03;;;5.43;;
14516;SDS011;7344;50.864;4.362;2022-09-25T06:45:11;8.70;;;5.20;;
14516;SDS011;7344;50.864;4.362;2022-09-25T06:47:36;8.60;;;4.30;;
14516;SDS011;7344;50.864;4.362;2022-09-25T06:50:02;7.83;;;3.73;;
14516;SDS011;7344;50.864;4.362;2022-09-25T06:52:28;6.32;;;3.63;;
14516;SDS011;7344;50.864;4.362;2022-09-25T06:54:54;6.45;;;3.33;;
14516;SDS011;7344;50.864;4.362;2022-09-25T06:57:19;6.03;;;3.60;;
14516;SDS011;7344;50.864;4.362;2022-09-25T06:59:45;6.82;;;3.42;;
14516;SDS011;7344;50.864;4.362;2022-09-25T07:02:10;7.85;;;3.53;;
14516;SDS011;7344;50.864;4.362;2022-09-25T07:04:54;4.18;;;3.25;;
14516;SDS011;7344;50.864;4.362;2022-09-25T07:07:20;4.00;;;3.60;;
14516;SDS011;7344;50.864;4.362;2022-09-25T07:09:46;3.50;;;3.20;;
14516;SDS011;7344;50.864;4.362;2022-09-25T07:12:12;4.47;;;3.70;;
14516;SDS011;7344;50.864;4.362;2022-09-25T07:14:39;4.00;;;3.60;;
14516;SDS011;7344;50.864;4.362;2022-09-25T07:17:07;3.70;;;3.10;;
14516;SDS011;7344;50.864;4.362;2022-09-25T07:19:32;5.53;;;3.53;;
14516;SDS011;7344;50.864;4.362;2022-09-25T07:21:58;5.38;;;3.38;;
14516;SDS011;7344;50.864;4.362;2022-09-25T07:24:24;7.90;;;3.17;;
14516;SDS011;7344;50.864;4.362;2022-09-25T07:26:50;4.10;;;3.20;;
14516;SDS011;7344;50.864;4.362;2022-09-25T07:29:17;6.60;;;3.08;;
14516;SDS011;7344;50.864;4.362;2022-09-25T07:31:43;6.68;;;3.00;;
14516;SDS011;7344;50.864;4.362;2022-09-25T07:34:09;3.67;;;3.00;;
14516;SDS011;7344;50.864;4.362;2022-09-25T07:36:36;3.17;;;2.97;;
14516;SDS011;7344;50.864;4.362;2022-09-25T07:39:03;4.28;;;3.45;;
14516;SDS011;7344;50.864;4.362;2022-09-25T07:41:29;4.72;;;3.25;;
14516;SDS011;7344;50.864;4.362;2022-09-25T07:43:55;4.97;;;3.58;;
14516;SDS011;7344;50.864;4.362;2022-09-25T07:46:22;4.95;;;3.40;;
14516;SDS011;7344;50.864;4.362;2022-09-25T07:48:48;3.40;;;2.90;;
14516;SDS011;7344;50.864;4.362;2022-09-25T07:51:14;4.75;;;2.70;;
14516;SDS011;7344;50.864;4.362;2022-09-25T07:53:41;4.78;;;2.42;;
14516;SDS011;7344;50.864;4.362;2022-09-25T07:56:08;5.43;;;2.88;;
14516;SDS011;7344;50.864;4.362;2022-09-25T07:58:35;4.28;;;2.60;;
14516;SDS011;7344;50.864;4.362;2022-09-25T08:01:02;6.15;;;2.30;;
14516;SDS011;7344;50.864;4.362;2022-09-25T08:03:29;2.72;;;2.50;;
14516;SDS011;7344;50.864;4.362;2022-09-25T08:05:56;5.47;;;2.95;;
14516;SDS011;7344;50.864;4.362;2022-09-25T08:08:23;3.60;;;2.42;;
14516;SDS011;7344;50.864;4.362;2022-09-25T08:10:49;3.63;;;2.28;;
14516;SDS011;7344;50.864;4.362;2022-09-25T08:13:15;3.47;;;2.10;;
14516;SDS011;7344;50.864;4.362;2022-09-25T08:15:44;3.22;;;2.30;;
14516;SDS011;7344;50.864;4.362;2022-09-25T08:18:10;4.05;;;2.70;;
14516;SDS011;7344;50.864;4.362;2022-09-25T08:20:36;3.35;;;2.25;;
14516;SDS011;7344;50.864;4.362;2022-09-25T08:23:04;4.88;;;2.85;;
14516;SDS011;7344;50.864;4.362;2022-09-25T08:25:30;4.15;;;1.98;;
14516;SDS011;7344;50.864;4.362;2022-09-25T08:27:56;3.20;;;1.90;;
14516;SDS011;7344;50.864;4.362;2022-09-25T08:30:21;3.58;;;2.40;;
14516;SDS011;7344;50.864;4.362;2022-09-25T08:32:47;4.93;;;2.20;;
14516;SDS011;7344;50.864;4.362;2022-09-25T08:35:12;4.00;;;1.88;;
14516;SDS011;7344;50.864;4.362;2022-09-25T08:37:39;4.22;;;2.13;;
14516;SDS011;7344;50.864;4.362;2022-09-25T08:40:11;3.85;;;1.45;;
14516;SDS011;7344;50.864;4.362;2022-09-25T08:42:42;3.05;;;1.35;;
14516;SDS011;7344;50.864;4.362;2022-09-25T08:45:11;2.45;;;1.30;;
14516;SDS011;7344;50.864;4.362;2022-09-25T08:48:29;3.72;;;1.60;;
14516;SDS011;7344;50.864;4.362;2022-09-25T08:51:16;1.92;;;1.30;;
14516;SDS011;7344;50.864;4.362;2022-09-25T08:53:42;3.00;;;1.20;;
14516;SDS011;7344;50.864;4.362;2022-09-25T08:56:13;2.83;;;1.70;;
14516;SDS011;7344;50.864;4.362;2022-09-25T09:01:24;5.40;;;1.60;;
14516;SDS011;7344;50.864;4.362;2022-09-25T09:06:22;2.97;;;1.40;;
14516;SDS011;7344;50.864;4.362;2022-09-25T09:09:00;2.63;;;1.40;;
14516;SDS011;7344;50.864;4.362;2022-09-25T09:11:51;3.92;;;1.45;;
14516;SDS011;7344;50.864;4.362;2022-09-25T09:14:21;3.03;;;1.40;;
14516;SDS011;7344;50.864;4.362;2022-09-25T09:16:59;1.90;;;0.93;;
14516;SDS011;7344;50.864;4.362;2022-09-25T09:19:29;3.67;;;1.40;;
14516;SDS011;7344;50.864;4.362;2022-09-25T09:22:12;3.70;;;1.35;;
14516;SDS011;7344;50.864;4.362;2022-09-25T09:30:26;1.50;;;1.23;;
14516;SDS011;7344;50.864;4.362;2022-09-25T09:49:11;2.65;;;1.30;;
14516;SDS011;7344;50.864;4.362;2022-09-25T09:51:46;5.43;;;1.40;;
14516;SDS011;7344;50.864;4.362;2022-09-25T09:57:20;2.33;;;1.20;;
14516;SDS011;7344;50.864;4.362;2022-09-25T10:02:40;3.95;;;1.23;;
14516;SDS011;7344;50.864;4.362;2022-09-25T10:05:22;3.00;;;1.70;;
14516;SDS011;7344;50.864;4.362;2022-09-25T10:07:54;2.25;;;1.20;;
14516;SDS011;7344;50.864;4.362;2022-09-25T10:10:20;4.85;;;1.38;;
14516;SDS011;7344;50.864;4.362;2022-09-25T10:12:51;2.40;;;1.02;;
14516;SDS011;7344;50.864;4.362;2022-09-25T10:17:56;2.63;;;1.23;;
14516;SDS011;7344;50.864;4.362;2022-09-25T10:20:26;2.70;;;1.35;;
14516;SDS011;7344;50.864;4.362;2022-09-25T10:22:59;2.90;;;1.40;;
14516;SDS011;7344;50.864;4.362;2022-09-25T10:25:38;2.15;;;1.30;;
14516;SDS011;7344;50.864;4.362;2022-09-25T10:28:19;2.22;;;1.48;;
14516;SDS011;7344;50.864;4.362;2022-09-25T10:30:49;3.17;;;1.63;;
14516;SDS011;7344;50.864;4.362;2022-09-25T10:33:22;2.83;;;1.27;;
14516;SDS011;7344;50.864;4.362;2022-09-25T10:35:50;1.65;;;1.45;;
14516;SDS011;7344;50.864;4.362;2022-09-25T10:40:58;2.17;;;1.27;;
14516;SDS011;7344;50.864;4.362;2022-09-25T10:43:27;3.38;;;1.42;;
14516;SDS011;7344;50.864;4.362;2022-09-25T10:46:10;2.67;;;1.50;;
14516;SDS011;7344;50.864;4.362;2022-09-25T10:48:38;2.08;;;1.30;;
14516;SDS011;7344;50.864;4.362;2022-09-25T10:51:23;4.28;;;1.73;;
14516;SDS011;7344;50.864;4.362;2022-09-25T10:53:51;4.20;;;2.40;;
14516;SDS011;7344;50.864;4.362;2022-09-25T10:56:34;3.20;;;2.00;;
14516;SDS011;7344;50.864;4.362;2022-09-25T10:59:02;4.53;;;2.95;;
14516;SDS011;7344;50.864;4.362;2022-09-25T11:01:34;10.68;;;5.90;;
14516;SDS011;7344;50.864;4.362;2022-09-25T11:04:44;6.25;;;4.22;;
14516;SDS011;7344;50.864;4.362;2022-09-25T11:06:58;3.30;;;2.30;;
14516;SDS011;7344;50.864;4.362;2022-09-25T11:09:27;2.50;;;1.50;;
14516;SDS011;7344;50.864;4.362;2022-09-25T11:12:07;2.67;;;1.75;;
14516;SDS011;7344;50.864;4.362;2022-09-25T11:14:44;2.58;;;1.50;;
14516;SDS011;7344;50.864;4.362;2022-09-25T11:17:38;3.40;;;1.60;;
14516;SDS011;7344;50.864;4.362;2022-09-25T11:22:43;2.55;;;1.70;;
14516;SDS011;7344;50.864;4.362;2022-09-25T11:28:03;3.20;;;1.83;;
14516;SDS011;7344;50.864;4.362;2022-09-25T11:30:39;3.45;;;1.70;;
14516;SDS011;7344;50.864;4.362;2022-09-25T11:38:49;3.03;;;1.33;;
14516;SDS011;7344;50.864;4.362;2022-09-25T11:59:58;4.43;;;1.90;;
14516;SDS011;7344;50.864;4.362;2022-09-25T12:21:38;4.43;;;1.20;;
14516;SDS011;7344;50.864;4.362;2022-09-25T12:24:26;2.28;;;1.20;;
14516;SDS011;7344;50.864;4.362;2022-09-25T12:29:37;2.28;;;1.40;;
14516;SDS011;7344;50.864;4.362;2022-09-25T12:32:32;2.92;;;1.38;;
14516;SDS011;7344;50.864;4.362;2022-09-25T12:38:26;2.90;;;1.40;;
14516;SDS011;7344;50.864;4.362;2022-09-25T12:41:18;2.28;;;1.27;;
14516;SDS011;7344;50.864;4.362;2022-09-25T12:44:08;4.65;;;1.15;;
14516;SDS011;7344;50.864;4.362;2022-09-25T12:47:03;1.63;;;1.33;;
14516;SDS011;7344;50.864;4.362;2022-09-25T12:49:39;2.30;;;1.10;;
14516;SDS011;7344;50.864;4.362;2022-09-25T12:52:26;3.42;;;1.50;;
14516;SDS011;7344;50.864;4.362;2022-09-25T12:55:05;4.97;;;1.50;;
14516;SDS011;7344;50.864;4.362;2022-09-25T13:00:22;4.63;;;1.40;;
14516;SDS011;7344;50.864;4.362;2022-09-25T13:03:01;5.55;;;1.40;;
14516;SDS011;7344;50.864;4.362;2022-09-25T13:05:32;2.00;;;1.23;;
14516;SDS011;7344;50.864;4.362;2022-09-25T13:13:19;1.05;;;0.98;;
14516;SDS011;7344;50.864;4.362;2022-09-25T13:15:51;2.25;;;1.17;;
14516;SDS011;7344;50.864;4.362;2022-09-25T13:18:22;2.17;;;1.17;;
14516;SDS011;7344;50.864;4.362;2022-09-25T13:20:51;2.20;;;1.10;;
14516;SDS011;7344;50.864;4.362;2022-09-25T13:23:34;2.97;;;1.42;;
14516;SDS011;7344;50.864;4.362;2022-09-25T13:26:08;3.28;;;1.73;;
14516;SDS011;7344;50.864;4.362;2022-09-25T13:28:37;2.90;;;1.13;;
14516;SDS011;7344;50.864;4.362;2022-09-25T13:31:09;1.75;;;1.00;;
14516;SDS011;7344;50.864;4.362;2022-09-25T13:36:39;2.60;;;1.40;;
14516;SDS011;7344;50.864;4.362;2022-09-25T13:39:15;1.83;;;0.95;;
14516;SDS011;7344;50.864;4.362;2022-09-25T13:42:04;1.60;;;1.17;;
14516;SDS011;7344;50.864;4.362;2022-09-25T13:49:52;2.08;;;0.90;;
14516;SDS011;7344;50.864;4.362;2022-09-25T13:52:30;1.67;;;1.20;;
14516;SDS011;7344;50.864;4.362;2022-09-25T14:02:59;2.47;;;1.13;;
14516;SDS011;7344;50.864;4.362;2022-09-25T14:05:28;2.67;;;1.00;;
14516;SDS011;7344;50.864;4.362;2022-09-25T14:08:00;1.33;;;1.00;;
14516;SDS011;7344;50.864;4.362;2022-09-25T14:10:32;1.52;;;1.10;;
14516;SDS011;7344;50.864;4.362;2022-09-25T14:12:58;1.85;;;1.10;;
14516;SDS011;7344;50.864;4.362;2022-09-25T14:15:27;2.42;;;1.20;;
14516;SDS011;7344;50.864;4.362;2022-09-25T14:17:59;1.08;;;0.98;;
14516;SDS011;7344;50.864;4.362;2022-09-25T14:20:42;1.17;;;1.02;;
14516;SDS011;7344;50.864;4.362;2022-09-25T14:25:44;2.85;;;1.30;;
14516;SDS011;7344;50.864;4.362;2022-09-25T14:28:25;1.70;;;1.30;;
14516;SDS011;7344;50.864;4.362;2022-09-25T14:39:28;2.40;;;1.58;;
14516;SDS011;7344;50.864;4.362;2022-09-25T14:45:18;1.38;;;1.15;;
14516;SDS011;7344;50.864;4.362;2022-09-25T14:48:12;1.30;;;1.15;;
14516;SDS011;7344;50.864;4.362;2022-09-25T14:50:45;1.80;;;1.20;;
14516;SDS011;7344;50.864;4.362;2022-09-25T14:53:17;1.27;;;0.93;;
14516;SDS011;7344;50.864;4.362;2022-09-25T14:55:48;2.70;;;1.50;;
14516;SDS011;7344;50.864;4.362;2022-09-25T14:58:19;3.33;;;1.20;;
14516;SDS011;7344;50.864;4.362;2022-09-25T15:00:49;2.50;;;1.08;;
14516;SDS011;7344;50.864;4.362;2022-09-25T15:03:18;2.63;;;1.00;;
14516;SDS011;7344;50.864;4.362;2022-09-25T15:05:48;1.20;;;0.80;;
14516;SDS011;7344;50.864;4.362;2022-09-25T15:08:18;1.10;;;1.00;;
14516;SDS011;7344;50.864;4.362;2022-09-25T15:10:47;2.78;;;0.80;;
14516;SDS011;7344;50.864;4.362;2022-09-25T15:13:17;5.32;;;1.33;;
14516;SDS011;7344;50.864;4.362;2022-09-25T15:15:51;2.78;;;1.42;;
14516;SDS011;7344;50.864;4.362;2022-09-25T15:18:40;1.23;;;1.13;;
14516;SDS011;7344;50.864;4.362;2022-09-25T15:21:41;2.60;;;1.10;;
14516;SDS011;7344;50.864;4.362;2022-09-25T15:24:02;1.38;;;0.90;;
14516;SDS011;7344;50.864;4.362;2022-09-25T15:26:30;2.10;;;1.10;;
14516;SDS011;7344;50.864;4.362;2022-09-25T15:28:56;1.70;;;1.60;;
14516;SDS011;7344;50.864;4.362;2022-09-25T15:31:22;3.22;;;1.17;;
14516;SDS011;7344;50.864;4.362;2022-09-25T15:34:01;3.28;;;1.48;;
14516;SDS011;7344;50.864;4.362;2022-09-25T15:36:29;2.58;;;2.35;;
14516;SDS011;7344;50.864;4.362;2022-09-25T15:38:56;4.28;;;1.20;;
14516;SDS011;7344;50.864;4.362;2022-09-25T15:41:24;2.03;;;1.15;;
14516;SDS011;7344;50.864;4.362;2022-09-25T15:43:51;2.25;;;1.30;;
14516;SDS011;7344;50.864;4.362;2022-09-25T15:46:33;1.85;;;0.90;;
14516;SDS011;7344;50.864;4.362;2022-09-25T15:49:06;1.40;;;0.90;;
14516;SDS011;7344;50.864;4.362;2022-09-25T15:51:32;1.63;;;1.38;;
14516;SDS011;7344;50.864;4.362;2022-09-25T15:54:01;1.10;;;1.00;;
14516;SDS011;7344;50.864;4.362;2022-09-25T15:56:30;1.55;;;1.10;;
14516;SDS011;7344;50.864;4.362;2022-09-25T15:59:25;1.20;;;1.10;;
14516;SDS011;7344;50.864;4.362;2022-09-25T16:01:54;1.52;;;1.33;;
14516;SDS011;7344;50.864;4.362;2022-09-25T16:04:39;1.50;;;1.40;;
14516;SDS011;7344;50.864;4.362;2022-09-25T16:07:34;2.13;;;1.50;;
14516;SDS011;7344;50.864;4.362;2022-09-25T16:17:57;2.58;;;1.33;;
14516;SDS011;7344;50.864;4.362;2022-09-25T16:20:31;2.20;;;1.40;;
14516;SDS011;7344;50.864;4.362;2022-09-25T16:23:02;2.63;;;1.30;;
14516;SDS011;7344;50.864;4.362;2022-09-25T16:30:48;5.90;;;5.25;;
14516;SDS011;7344;50.864;4.362;2022-09-25T16:35:49;4.07;;;2.33;;
14516;SDS011;7344;50.864;4.362;2022-09-25T16:38:28;4.90;;;3.50;;
14516;SDS011;7344;50.864;4.362;2022-09-25T16:43:34;3.57;;;2.27;;
14516;SDS011;7344;50.864;4.362;2022-09-25T16:46:09;2.40;;;2.07;;
14516;SDS011;7344;50.864;4.362;2022-09-25T16:48:43;2.10;;;1.90;;
14516;SDS011;7344;50.864;4.362;2022-09-25T16:51:19;2.80;;;1.87;;
14516;SDS011;7344;50.864;4.362;2022-09-25T16:53:47;2.80;;;1.73;;
14516;SDS011;7344;50.864;4.362;2022-09-25T16:56:20;4.73;;;2.43;;
14516;SDS011;7344;50.864;4.362;2022-09-25T16:58:46;3.13;;;2.00;;
14516;SDS011;7344;50.864;4.362;2022-09-25T17:01:13;4.23;;;2.23;;
14516;SDS011;7344;50.864;4.362;2022-09-25T17:03:39;3.63;;;2.60;;
14516;SDS011;7344;50.864;4.362;2022-09-25T17:06:24;4.17;;;2.27;;
14516;SDS011;7344;50.864;4.362;2022-09-25T17:08:51;2.80;;;1.93;;
14516;SDS011;7344;50.864;4.362;2022-09-25T17:11:17;3.13;;;2.23;;
14516;SDS011;7344;50.864;4.362;2022-09-25T17:13:45;2.30;;;2.10;;
14516;SDS011;7344;50.864;4.362;2022-09-25T17:16:11;5.10;;;3.77;;
14516;SDS011;7344;50.864;4.362;2022-09-25T17:18:37;6.20;;;3.97;;
14516;SDS011;7344;50.864;4.362;2022-09-25T17:21:05;2.40;;;2.20;;
14516;SDS011;7344;50.864;4.362;2022-09-25T17:23:35;3.97;;;3.67;;
14516;SDS011;7344;50.864;4.362;2022-09-25T17:26:02;4.93;;;3.00;;
14516;SDS011;7344;50.864;4.362;2022-09-25T17:28:39;8.73;;;5.87;;
14516;SDS011;7344;50.864;4.362;2022-09-25T17:31:05;7.10;;;4.03;;
14516;SDS011;7344;50.864;4.362;2022-09-25T17:33:33;6.13;;;3.00;;
14516;SDS011;7344;50.864;4.362;2022-09-25T17:36:02;3.50;;;2.70;;
14516;SDS011;7344;50.864;4.362;2022-09-25T17:38:29;4.07;;;2.83;;
14516;SDS011;7344;50.864;4.362;2022-09-25T17:40:56;4.67;;;2.97;;
14516;SDS011;7344;50.864;4.362;2022-09-25T17:43:24;3.40;;;2.20;;
14516;SDS011;7344;50.864;4.362;2022-09-25T17:45:50;5.03;;;3.07;;
14516;SDS011;7344;50.864;4.362;2022-09-25T17:48:18;3.20;;;2.90;;
14516;SDS011;7344;50.864;4.362;2022-09-25T17:50:48;5.67;;;3.40;;
14516;SDS011;7344;50.864;4.362;2022-09-25T17:53:20;3.40;;;2.73;;
14516;SDS011;7344;50.864;4.362;2022-09-25T17:55:52;3.30;;;2.47;;
14516;SDS011;7344;50.864;4.362;2022-09-25T17:58:18;4.70;;;2.57;;
14516;SDS011;7344;50.864;4.362;2022-09-25T18:00:44;4.03;;;2.30;;
14516;SDS011;7344;50.864;4.362;2022-09-25T18:03:10;3.57;;;2.00;;
14516;SDS011;7344;50.864;4.362;2022-09-25T18:05:36;5.53;;;2.50;;
14516;SDS011;7344;50.864;4.362;2022-09-25T18:08:03;3.80;;;2.27;;
14516;SDS011;7344;50.864;4.362;2022-09-25T18:10:29;3.10;;;2.40;;
14516;SDS011;7344;50.864;4.362;2022-09-25T18:12:55;3.17;;;2.40;;
14516;SDS011;7344;50.864;4.362;2022-09-25T18:15:21;5.03;;;2.27;;
14516;SDS011;7344;50.864;4.362;2022-09-25T18:17:47;3.10;;;2.07;;